sensor_id;sensor_type;location;lat;lon;timestamp;pressure;altitude;pressure_sealevel;temperature;humidity
42169;BME280;27838;43.858;25.974;2023-07-29T00:02:24;100737.34;;;26.26;33.80
42169;BME280;27838;43.858;25.974;2023-07-29T00:04:52;100739.06;;;26.27;33.56
42169;BME280;27838;43.858;25.974;2023-07-29T00:07:19;100741.75;;;26.27;33.34
42169;BME280;27838;43.858;25.974;2023-07-29T00:09:46;100751.13;;;26.19;33.57
42169;BME280;27838;43.858;25.974;2023-07-29T00:12:12;100745.13;;;26.16;33.52
42169;BME280;27838;43.858;25.974;2023-07-29T00:14:39;100740.06;;;26.11;34.11
42169;BME280;27838;43.858;25.974;2023-07-29T00:17:05;100743.38;;;26.15;33.69
42169;BME280;27838;43.858;25.974;2023-07-29T00:19:32;100731.53;;;26.19;33.91
42169;BME280;27838;43.858;25.974;2023-07-29T00:21:59;100724.97;;;26.10;33.90
42169;BME280;27838;43.858;25.974;2023-07-29T00:24:25;100718.97;;;26.07;33.66
42169;BME280;27838;43.858;25.974;2023-07-29T00:26:52;100735.66;;;26.10;33.89
42169;BME280;27838;43.858;25.974;2023-07-29T00:29:18;100738.56;;;26.07;34.13
42169;BME280;27838;43.858;25.974;2023-07-29T00:31:44;100732.84;;;25.99;34.11
42169;BME280;27838;43.858;25.974;2023-07-29T00:34:11;100731.22;;;25.96;34.24
42169;BME280;27838;43.858;25.974;2023-07-29T00:36:42;100739.03;;;25.99;34.35
42169;BME280;27838;43.858;25.974;2023-07-29T00:39:09;100732.66;;;26.02;35.04
42169;BME280;27838;43.858;25.974;2023-07-29T00:41:35;100730.84;;;26.03;34.84
42169;BME280;27838;43.858;25.974;2023-07-29T00:44:02;100730.53;;;26.07;35.35
42169;BME280;27838;43.858;25.974;2023-07-29T00:46:28;100723.56;;;26.05;35.46
42169;BME280;27838;43.858;25.974;2023-07-29T00:48:55;100732.56;;;26.04;35.44
42169;BME280;27838;43.858;25.974;2023-07-29T00:51:22;100734.44;;;26.02;35.30
42169;BME280;27838;43.858;25.974;2023-07-29T00:53:48;100728.69;;;25.95;35.46
42169;BME280;27838;43.858;25.974;2023-07-29T00:56:15;100730.47;;;25.94;35.62
42169;BME280;27838;43.858;25.974;2023-07-29T00:58:42;100724.63;;;25.88;35.62
42169;BME280;27838;43.858;25.974;2023-07-29T01:01:09;100733.13;;;25.80;36.30
42169;BME280;27838;43.858;25.974;2023-07-29T01:03:35;100739.25;;;25.68;37.17
42169;BME280;27838;43.858;25.974;2023-07-29T01:06:34;100735.34;;;25.59;37.32
42169;BME280;27838;43.858;25.974;2023-07-29T01:09:05;100734.97;;;25.51;37.96
42169;BME280;27838;43.858;25.974;2023-07-29T01:11:41;100730.97;;;25.43;37.81
42169;BME280;27838;43.858;25.974;2023-07-29T01:14:36;100742.50;;;25.44;38.06
42169;BME280;27838;43.858;25.974;2023-07-29T01:17:08;100729.47;;;25.39;37.84
42169;BME280;27838;43.858;25.974;2023-07-29T01:19:42;100727.72;;;25.38;37.90
42169;BME280;27838;43.858;25.974;2023-07-29T01:22:11;100741.81;;;25.40;38.24
42169;BME280;27838;43.858;25.974;2023-07-29T01:24:39;100732.22;;;25.38;38.10
42169;BME280;27838;43.858;25.974;2023-07-29T01:27:05;100737.06;;;25.31;37.84
42169;BME280;27838;43.858;25.974;2023-07-29T01:29:32;100739.91;;;25.28;38.35
42169;BME280;27838;43.858;25.974;2023-07-29T01:32:14;100727.78;;;25.22;38.19
42169;BME280;27838;43.858;25.974;2023-07-29T01:35:00;100740.19;;;25.23;38.22
42169;BME280;27838;43.858;25.974;2023-07-29T01:37:33;100742.06;;;25.21;38.11
42169;BME280;27838;43.858;25.974;2023-07-29T01:40:00;100735.88;;;25.21;38.36
42169;BME280;27838;43.858;25.974;2023-07-29T01:42:27;100741.59;;;25.15;38.77
42169;BME280;27838;43.858;25.974;2023-07-29T01:44:55;100740.94;;;25.11;38.81
42169;BME280;27838;43.858;25.974;2023-07-29T01:47:21;100742.56;;;25.14;38.46
42169;BME280;27838;43.858;25.974;2023-07-29T01:49:48;100733.97;;;25.09;38.03
42169;BME280;27838;43.858;25.974;2023-07-29T01:52:15;100731.13;;;25.12;37.87
42169;BME280;27838;43.858;25.974;2023-07-29T01:54:41;100739.69;;;25.17;37.60
42169;BME280;27838;43.858;25.974;2023-07-29T01:57:08;100733.69;;;25.13;37.66
42169;BME280;27838;43.858;25.974;2023-07-29T01:59:34;100732.56;;;25.17;37.43
42169;BME280;27838;43.858;25.974;2023-07-29T02:02:01;100730.94;;;25.15;37.39
42169;BME280;27838;43.858;25.974;2023-07-29T02:04:28;100732.81;;;25.13;37.49
42169;BME280;27838;43.858;25.974;2023-07-29T02:06:54;100729.41;;;25.11;37.49
42169;BME280;27838;43.858;25.974;2023-07-29T02:09:21;100733.13;;;25.08;37.71
42169;BME280;27838;43.858;25.974;2023-07-29T02:11:47;100730.44;;;25.08;37.17
42169;BME280;27838;43.858;25.974;2023-07-29T02:14:14;100720.81;;;25.05;37.21
42169;BME280;27838;43.858;25.974;2023-07-29T02:16:40;100725.97;;;25.09;37.08
42169;BME280;27838;43.858;25.974;2023-07-29T02:19:07;100727.47;;;25.13;36.99
42169;BME280;27838;43.858;25.974;2023-07-29T02:21:33;100725.78;;;25.12;37.20
42169;BME280;27838;43.858;25.974;2023-07-29T02:24:00;100720.72;;;25.07;37.16
42169;BME280;27838;43.858;25.974;2023-07-29T02:26:26;100721.03;;;25.02;37.46
42169;BME280;27838;43.858;25.974;2023-07-29T02:28:53;100724.63;;;25.01;37.37
42169;BME280;27838;43.858;25.974;2023-07-29T02:31:24;100728.22;;;25.00;37.60
42169;BME280;27838;43.858;25.974;2023-07-29T02:33:51;100727.19;;;25.03;37.51
42169;BME280;27838;43.858;25.974;2023-07-29T02:36:18;100728.06;;;25.03;37.46
42169;BME280;27838;43.858;25.974;2023-07-29T02:38:44;100732.53;;;25.03;37.75
42169;BME280;27838;43.858;25.974;2023-07-29T02:41:11;100735.13;;;25.04;37.98
42169;BME280;27838;43.858;25.974;2023-07-29T02:43:38;100733.56;;;25.00;37.99
42169;BME280;27838;43.858;25.974;2023-07-29T02:46:06;100744.91;;;25.04;38.18
42169;BME280;27838;43.858;25.974;2023-07-29T02:48:32;100747.69;;;25.02;37.94
42169;BME280;27838;43.858;25.974;2023-07-29T02:51:01;100738.22;;;24.97;38.45
42169;BME280;27838;43.858;25.974;2023-07-29T02:53:28;100754.91;;;25.00;38.74
42169;BME280;27838;43.858;25.974;2023-07-29T02:55:54;100758.53;;;24.99;39.30
42169;BME280;27838;43.858;25.974;2023-07-29T02:58:21;100758.72;;;24.96;39.54
42169;BME280;27838;43.858;25.974;2023-07-29T03:00:47;100758.78;;;24.95;39.39
42169;BME280;27838;43.858;25.974;2023-07-29T03:03:14;100771.19;;;24.96;39.72
42169;BME280;27838;43.858;25.974;2023-07-29T03:05:40;100783.56;;;24.97;39.23
42169;BME280;27838;43.858;25.974;2023-07-29T03:08:07;100783.56;;;24.97;38.51
42169;BME280;27838;43.858;25.974;2023-07-29T03:10:35;100778.22;;;24.97;37.77
42169;BME280;27838;43.858;25.974;2023-07-29T03:13:01;100784.78;;;24.91;37.65
42169;BME280;27838;43.858;25.974;2023-07-29T03:15:28;100792.50;;;24.96;37.77
42169;BME280;27838;43.858;25.974;2023-07-29T03:17:55;100789.09;;;24.94;37.63
42169;BME280;27838;43.858;25.974;2023-07-29T03:20:21;100794.50;;;24.92;37.63
42169;BME280;27838;43.858;25.974;2023-07-29T03:22:48;100800.78;;;24.91;37.74
42169;BME280;27838;43.858;25.974;2023-07-29T03:25:14;100800.78;;;24.91;37.79
42169;BME280;27838;43.858;25.974;2023-07-29T03:27:41;100802.69;;;24.89;37.43
42169;BME280;27838;43.858;25.974;2023-07-29T03:30:07;100804.66;;;24.85;37.50
42169;BME280;27838;43.858;25.974;2023-07-29T03:32:34;100795.03;;;24.83;37.21
42169;BME280;27838;43.858;25.974;2023-07-29T03:35:00;100802.25;;;24.81;37.03
42169;BME280;27838;43.858;25.974;2023-07-29T03:37:27;100799.59;;;24.81;37.24
42169;BME280;27838;43.858;25.974;2023-07-29T03:39:54;100798.25;;;24.74;37.19
42169;BME280;27838;43.858;25.974;2023-07-29T03:42:20;100806.41;;;24.71;37.67
42169;BME280;27838;43.858;25.974;2023-07-29T03:44:47;100807.47;;;24.68;37.49
42169;BME280;27838;43.858;25.974;2023-07-29T03:47:13;100802.22;;;24.66;37.68
42169;BME280;27838;43.858;25.974;2023-07-29T03:49:40;100797.81;;;24.65;37.81
42169;BME280;27838;43.858;25.974;2023-07-29T03:52:06;100796.88;;;24.66;37.82
42169;BME280;27838;43.858;25.974;2023-07-29T03:54:33;100797.81;;;24.65;37.97
42169;BME280;27838;43.858;25.974;2023-07-29T03:56:59;100796.88;;;24.66;37.85
42169;BME280;27838;43.858;25.974;2023-07-29T03:59:26;100800.13;;;24.72;37.92
42169;BME280;27838;43.858;25.974;2023-07-29T04:01:52;100797.47;;;24.72;37.90
42169;BME280;27838;43.858;25.974;2023-07-29T04:04:19;100805.47;;;24.72;38.14
42169;BME280;27838;43.858;25.974;2023-07-29T04:06:46;100786.56;;;24.60;38.08
42169;BME280;27838;43.858;25.974;2023-07-29T04:09:12;100800.91;;;24.74;38.04
42169;BME280;27838;43.858;25.974;2023-07-29T04:11:39;100798.25;;;24.74;37.99
42169;BME280;27838;43.858;25.974;2023-07-29T04:14:06;100795.41;;;24.77;38.11
42169;BME280;27838;43.858;25.974;2023-07-29T04:16:32;100799.22;;;24.73;37.81
42169;BME280;27838;43.858;25.974;2023-07-29T04:18:59;100791.09;;;24.74;38.09
42169;BME280;27838;43.858;25.974;2023-07-29T04:21:25;100784.91;;;24.74;38.32
42169;BME280;27838;43.858;25.974;2023-07-29T04:23:53;100791.59;;;24.81;38.22
42169;BME280;27838;43.858;25.974;2023-07-29T04:26:20;100794.00;;;24.85;38.42
42169;BME280;27838;43.858;25.974;2023-07-29T04:28:46;100789.53;;;24.86;38.23
42169;BME280;27838;43.858;25.974;2023-07-29T04:31:13;100795.28;;;24.94;37.98
42169;BME280;27838;43.858;25.974;2023-07-29T04:33:39;100792.59;;;24.94;37.51
42169;BME280;27838;43.858;25.974;2023-07-29T04:36:06;100794.72;;;25.03;37.54
42169;BME280;27838;43.858;25.974;2023-07-29T04:38:33;100801.59;;;25.08;37.41
42169;BME280;27838;43.858;25.974;2023-07-29T04:41:00;100800.47;;;25.12;36.91
42169;BME280;27838;43.858;25.974;2023-07-29T04:43:28;100797.53;;;25.16;37.05
42169;BME280;27838;43.858;25.974;2023-07-29T04:45:54;100800.75;;;25.21;37.10
42169;BME280;27838;43.858;25.974;2023-07-29T04:48:21;100798.88;;;25.23;37.31
42169;BME280;27838;43.858;25.974;2023-07-29T04:50:47;100804.91;;;25.27;37.39
42169;BME280;27838;43.858;25.974;2023-07-29T04:53:14;100806.25;;;25.34;37.32
42169;BME280;27838;43.858;25.974;2023-07-29T04:55:41;100792.06;;;25.34;37.05
42169;BME280;27838;43.858;25.974;2023-07-29T04:58:08;100795.97;;;25.42;36.64
42169;BME280;27838;43.858;25.974;2023-07-29T05:00:35;100805.09;;;25.53;36.67
42169;BME280;27838;43.858;25.974;2023-07-29T05:03:02;100811.81;;;25.60;36.59
42169;BME280;27838;43.858;25.974;2023-07-29T05:05:28;100818.56;;;25.66;36.68
42169;BME280;27838;43.858;25.974;2023-07-29T05:07:55;100813.16;;;25.67;36.16
42169;BME280;27838;43.858;25.974;2023-07-29T05:10:21;100809.13;;;25.74;36.05
42169;BME280;27838;43.858;25.974;2023-07-29T05:12:48;100818.09;;;25.73;36.04
42169;BME280;27838;43.858;25.974;2023-07-29T05:15:14;100815.59;;;25.70;35.72
42169;BME280;27838;43.858;25.974;2023-07-29T05:17:41;100818.56;;;25.66;36.02
42169;BME280;27838;43.858;25.974;2023-07-29T05:20:08;100814.56;;;25.58;36.12
42169;BME280;27838;43.858;25.974;2023-07-29T05:22:35;100813.91;;;25.55;36.19
42169;BME280;27838;43.858;25.974;2023-07-29T05:25:01;100822.09;;;25.52;36.34
42169;BME280;27838;43.858;25.974;2023-07-29T05:27:28;100820.94;;;25.56;36.17
42169;BME280;27838;43.858;25.974;2023-07-29T05:29:54;100829.91;;;25.55;36.11
42169;BME280;27838;43.858;25.974;2023-07-29T05:32:21;100836.78;;;25.59;36.23
42169;BME280;27838;43.858;25.974;2023-07-29T05:34:47;100835.84;;;25.60;36.52
42169;BME280;27838;43.858;25.974;2023-07-29T05:37:14;100840.94;;;25.63;36.18
42169;BME280;27838;43.858;25.974;2023-07-29T05:39:40;100840.00;;;25.64;36.57
42169;BME280;27838;43.858;25.974;2023-07-29T05:42:07;100850.88;;;25.61;36.64
42169;BME280;27838;43.858;25.974;2023-07-29T05:44:33;100855.28;;;25.62;36.99
42169;BME280;27838;43.858;25.974;2023-07-29T05:47:00;100852.22;;;25.68;37.06
42169;BME280;27838;43.858;25.974;2023-07-29T05:49:26;100847.25;;;25.76;37.04
42169;BME280;27838;43.858;25.974;2023-07-29T05:51:53;100851.66;;;25.77;37.12
42169;BME280;27838;43.858;25.974;2023-07-29T05:54:19;100858.44;;;25.83;37.06
42169;BME280;27838;43.858;25.974;2023-07-29T05:56:46;100856.25;;;25.90;36.96
42169;BME280;27838;43.858;25.974;2023-07-29T05:59:12;100854.31;;;25.92;36.82
42169;BME280;27838;43.858;25.974;2023-07-29T06:01:39;100854.50;;;25.89;37.33
42169;BME280;27838;43.858;25.974;2023-07-29T06:04:05;100851.25;;;25.84;37.16
42169;BME280;27838;43.858;25.974;2023-07-29T06:06:32;100850.03;;;25.75;37.76
42169;BME280;27838;43.858;25.974;2023-07-29T06:08:59;100843.16;;;25.85;37.78
42169;BME280;27838;43.858;25.974;2023-07-29T06:11:25;100832.97;;;25.92;37.57
42169;BME280;27838;43.858;25.974;2023-07-29T06:13:52;100843.47;;;26.09;37.74
42169;BME280;27838;43.858;25.974;2023-07-29T06:16:18;100844.69;;;26.18;37.32
42169;BME280;27838;43.858;25.974;2023-07-29T06:18:45;100837.91;;;26.27;37.56
42169;BME280;27838;43.858;25.974;2023-07-29T06:21:12;100841.81;;;26.35;37.69
42169;BME280;27838;43.858;25.974;2023-07-29T06:23:43;100843.50;;;26.51;37.10
42169;BME280;27838;43.858;25.974;2023-07-29T06:26:09;100850.25;;;26.56;36.71
42169;BME280;27838;43.858;25.974;2023-07-29T06:28:36;100851.75;;;26.61;35.79
42169;BME280;27838;43.858;25.974;2023-07-29T06:31:02;100829.91;;;26.54;36.30
42169;BME280;27838;43.858;25.974;2023-07-29T06:33:29;100850.97;;;26.73;36.46
42169;BME280;27838;43.858;25.974;2023-07-29T06:35:55;100846.38;;;26.75;36.76
42169;BME280;27838;43.858;25.974;2023-07-29T06:38:22;100851.03;;;26.86;37.34
42169;BME280;27838;43.858;25.974;2023-07-29T06:40:48;100844.09;;;26.96;37.72
42169;BME280;27838;43.858;25.974;2023-07-29T06:43:15;100857.91;;;27.03;37.25
42169;BME280;27838;43.858;25.974;2023-07-29T06:45:42;100852.81;;;27.12;37.28
42169;BME280;27838;43.858;25.974;2023-07-29T06:48:08;100851.34;;;27.21;37.45
42169;BME280;27838;43.858;25.974;2023-07-29T06:50:35;100845.13;;;27.21;37.50
42169;BME280;27838;43.858;25.974;2023-07-29T06:53:02;100846.88;;;27.35;37.22
42169;BME280;27838;43.858;25.974;2023-07-29T06:55:29;100843.56;;;27.44;37.45
42169;BME280;27838;43.858;25.974;2023-07-29T06:57:55;100850.13;;;27.53;37.60
42169;BME280;27838;43.858;25.974;2023-07-29T07:00:22;100841.88;;;27.56;37.32
42169;BME280;27838;43.858;25.974;2023-07-29T07:02:48;100836.81;;;27.64;37.30
42169;BME280;27838;43.858;25.974;2023-07-29T07:05:15;100831.25;;;27.67;37.01
42169;BME280;27838;43.858;25.974;2023-07-29T07:07:42;100841.63;;;27.84;36.83
42169;BME280;27838;43.858;25.974;2023-07-29T07:10:08;100845.50;;;27.93;36.73
42169;BME280;27838;43.858;25.974;2023-07-29T07:12:35;100839.84;;;27.98;36.38
42169;BME280;27838;43.858;25.974;2023-07-29T07:15:02;100841.84;;;28.07;36.78
42169;BME280;27838;43.858;25.974;2023-07-29T07:17:28;100843.00;;;28.16;36.85
42169;BME280;27838;43.858;25.974;2023-07-29T07:19:55;100836.22;;;28.23;35.62
42169;BME280;27838;43.858;25.974;2023-07-29T07:22:21;100831.19;;;28.31;35.22
42169;BME280;27838;43.858;25.974;2023-07-29T07:24:49;100826.72;;;28.43;34.76
42169;BME280;27838;43.858;25.974;2023-07-29T07:27:15;100820.41;;;28.44;34.30
42169;BME280;27838;43.858;25.974;2023-07-29T07:29:42;100832.09;;;28.56;34.30
42169;BME280;27838;43.858;25.974;2023-07-29T07:32:08;100831.09;;;28.57;33.78
42169;BME280;27838;43.858;25.974;2023-07-29T07:34:35;100830.25;;;28.56;33.84
42169;BME280;27838;43.858;25.974;2023-07-29T07:37:01;100828.81;;;28.63;31.77
42169;BME280;27838;43.858;25.974;2023-07-29T07:39:29;100829.22;;;28.70;31.72
42169;BME280;27838;43.858;25.974;2023-07-29T07:41:55;100816.66;;;28.71;32.12
42169;BME280;27838;43.858;25.974;2023-07-29T07:44:22;100830.75;;;28.86;32.20
42169;BME280;27838;43.858;25.974;2023-07-29T07:46:51;100821.78;;;28.98;31.16
42169;BME280;27838;43.858;25.974;2023-07-29T07:49:18;100815.69;;;29.07;31.42
42169;BME280;27838;43.858;25.974;2023-07-29T07:51:45;100815.25;;;29.13;30.28
42169;BME280;27838;43.858;25.974;2023-07-29T07:54:11;100823.94;;;29.17;30.33
42169;BME280;27838;43.858;25.974;2023-07-29T07:56:38;100817.25;;;29.23;30.46
42169;BME280;27838;43.858;25.974;2023-07-29T07:59:04;100827.25;;;29.32;29.59
42169;BME280;27838;43.858;25.974;2023-07-29T08:01:35;100812.63;;;29.36;30.11
42169;BME280;27838;43.858;25.974;2023-07-29T08:04:02;100802.91;;;29.46;29.82
42169;BME280;27838;43.858;25.974;2023-07-29T08:06:29;100814.59;;;29.56;30.13
42169;BME280;27838;43.858;25.974;2023-07-29T08:08:56;100810.59;;;29.62;30.50
42169;BME280;27838;43.858;25.974;2023-07-29T08:11:23;100803.88;;;29.68;30.37
42169;BME280;27838;43.858;25.974;2023-07-29T08:13:50;100805.84;;;29.77;30.23
42169;BME280;27838;43.858;25.974;2023-07-29T08:16:16;100816.72;;;29.87;30.43
42169;BME280;27838;43.858;25.974;2023-07-29T08:18:43;100806.06;;;29.97;29.18
42169;BME280;27838;43.858;25.974;2023-07-29T08:21:09;100805.22;;;29.96;28.94
42169;BME280;27838;43.858;25.974;2023-07-29T08:23:36;100805.84;;;30.00;28.23
42169;BME280;27838;43.858;25.974;2023-07-29T08:26:05;100791.66;;;29.98;27.91
42169;BME280;27838;43.858;25.974;2023-07-29T08:28:36;100793.47;;;30.08;27.92
42169;BME280;27838;43.858;25.974;2023-07-29T08:31:03;100793.00;;;30.15;28.21
42169;BME280;27838;43.858;25.974;2023-07-29T08:33:30;100802.25;;;30.22;27.84
42169;BME280;27838;43.858;25.974;2023-07-29T08:35:58;100797.13;;;30.19;27.36
42169;BME280;27838;43.858;25.974;2023-07-29T08:38:24;100798.47;;;30.24;27.36
42169;BME280;27838;43.858;25.974;2023-07-29T08:40:59;100800.06;;;30.27;27.29
42169;BME280;27838;43.858;25.974;2023-07-29T08:43:32;100793.69;;;30.28;27.51
42169;BME280;27838;43.858;25.974;2023-07-29T08:45:59;100782.31;;;30.24;28.15
42169;BME280;27838;43.858;25.974;2023-07-29T08:48:36;100778.16;;;30.31;27.87
42169;BME280;27838;43.858;25.974;2023-07-29T08:51:07;100784.75;;;30.39;27.81
42169;BME280;27838;43.858;25.974;2023-07-29T08:53:35;100779.72;;;30.45;28.34
42169;BME280;27838;43.858;25.974;2023-07-29T08:56:02;100774.31;;;30.57;27.88
42169;BME280;27838;43.858;25.974;2023-07-29T08:58:30;100774.50;;;30.65;27.66
42169;BME280;27838;43.858;25.974;2023-07-29T09:00:57;100776.56;;;30.73;27.26
42169;BME280;27838;43.858;25.974;2023-07-29T09:03:24;100771.19;;;30.73;27.01
42169;BME280;27838;43.858;25.974;2023-07-29T09:05:50;100778.34;;;30.83;27.21
42169;BME280;27838;43.858;25.974;2023-07-29T09:08:18;100771.59;;;30.89;27.34
42169;BME280;27838;43.858;25.974;2023-07-29T09:10:44;100770.97;;;30.97;27.81
42169;BME280;27838;43.858;25.974;2023-07-29T09:13:11;100766.34;;;31.09;27.89
42169;BME280;27838;43.858;25.974;2023-07-29T09:15:37;100760.19;;;31.18;27.10
42169;BME280;27838;43.858;25.974;2023-07-29T09:18:11;100761.09;;;31.28;27.63
42169;BME280;27838;43.858;25.974;2023-07-29T09:20:38;100763.25;;;31.34;28.08
42169;BME280;27838;43.858;25.974;2023-07-29T09:23:08;100766.25;;;31.41;27.48
42169;BME280;27838;43.858;25.974;2023-07-29T09:25:36;100764.03;;;31.46;26.56
42169;BME280;27838;43.858;25.974;2023-07-29T09:28:14;100759.81;;;31.53;27.22
42169;BME280;27838;43.858;25.974;2023-07-29T09:30:42;100760.72;;;31.64;27.00
42169;BME280;27838;43.858;25.974;2023-07-29T09:33:09;100758.91;;;31.74;27.05
42169;BME280;27838;43.858;25.974;2023-07-29T09:35:37;100756.34;;;31.72;26.38
42169;BME280;27838;43.858;25.974;2023-07-29T09:38:05;100750.78;;;31.64;26.25
42169;BME280;27838;43.858;25.974;2023-07-29T09:40:39;100754.81;;;31.79;27.15
42169;BME280;27838;43.858;25.974;2023-07-29T09:43:08;100752.56;;;31.85;26.42
42169;BME280;27838;43.858;25.974;2023-07-29T09:45:36;100751.59;;;31.86;24.75
42169;BME280;27838;43.858;25.974;2023-07-29T09:48:04;100750.56;;;31.87;24.33
42169;BME280;27838;43.858;25.974;2023-07-29T09:50:34;100737.25;;;31.85;24.28
42169;BME280;27838;43.858;25.974;2023-07-29T09:53:02;100741.97;;;31.93;24.93
42169;BME280;27838;43.858;25.974;2023-07-29T09:55:32;100737.72;;;32.00;24.89
42169;BME280;27838;43.858;25.974;2023-07-29T09:58:00;100739.91;;;32.16;25.10
42169;BME280;27838;43.858;25.974;2023-07-29T10:00:29;100736.22;;;32.27;25.03
42169;BME280;27838;43.858;25.974;2023-07-29T10:02:57;100729.97;;;32.36;25.47
42169;BME280;27838;43.858;25.974;2023-07-29T10:05:28;100731.41;;;32.40;24.86
42169;BME280;27838;43.858;25.974;2023-07-29T10:07:56;100718.75;;;32.31;25.20
42169;BME280;27838;43.858;25.974;2023-07-29T10:10:22;100730.53;;;32.49;25.10
42169;BME280;27838;43.858;25.974;2023-07-29T10:12:50;100719.75;;;32.59;24.55
42169;BME280;27838;43.858;25.974;2023-07-29T10:15:17;100724.03;;;32.71;24.31
42169;BME280;27838;43.858;25.974;2023-07-29T10:17:45;100716.03;;;32.80;24.86
42169;BME280;27838;43.858;25.974;2023-07-29T10:20:12;100709.34;;;32.93;24.29
42169;BME280;27838;43.858;25.974;2023-07-29T10:22:41;100723.38;;;33.07;24.80
42169;BME280;27838;43.858;25.974;2023-07-29T10:25:17;100721.69;;;33.16;24.56
42169;BME280;27838;43.858;25.974;2023-07-29T10:27:49;100714.13;;;33.19;24.36
42169;BME280;27838;43.858;25.974;2023-07-29T10:30:18;100709.84;;;33.26;24.05
42169;BME280;27838;43.858;25.974;2023-07-29T10:32:45;100709.94;;;33.35;23.92
42169;BME280;27838;43.858;25.974;2023-07-29T10:35:13;100715.56;;;33.51;23.61
42169;BME280;27838;43.858;25.974;2023-07-29T10:37:40;100714.66;;;33.60;23.46
42169;BME280;27838;43.858;25.974;2023-07-29T10:40:09;100710.31;;;33.77;23.79
42169;BME280;27838;43.858;25.974;2023-07-29T10:42:37;100707.72;;;33.85;23.76
42169;BME280;27838;43.858;25.974;2023-07-29T10:45:20;100699.16;;;33.90;23.20
42169;BME280;27838;43.858;25.974;2023-07-29T10:47:47;100698.38;;;33.98;23.56
42169;BME280;27838;43.858;25.974;2023-07-29T10:50:19;100697.38;;;33.99;23.91
42169;BME280;27838;43.858;25.974;2023-07-29T10:52:52;100692.19;;;34.05;23.87
42169;BME280;27838;43.858;25.974;2023-07-29T10:55:30;100696.69;;;34.15;24.08
42169;BME280;27838;43.858;25.974;2023-07-29T10:58:06;100692.69;;;34.19;23.90
42169;BME280;27838;43.858;25.974;2023-07-29T11:00:33;100680.56;;;34.23;23.40
42169;BME280;27838;43.858;25.974;2023-07-29T11:03:02;100685.66;;;34.26;23.46
42169;BME280;27838;43.858;25.974;2023-07-29T11:08:24;100680.47;;;34.15;23.68
42169;BME280;27838;43.858;25.974;2023-07-29T11:13:32;100685.97;;;34.23;23.19
42169;BME280;27838;43.858;25.974;2023-07-29T11:15:59;100684.53;;;34.29;23.34
42169;BME280;27838;43.858;25.974;2023-07-29T11:18:28;100691.75;;;34.28;23.59
42169;BME280;27838;43.858;25.974;2023-07-29T11:20:56;100686.75;;;34.33;23.08
42169;BME280;27838;43.858;25.974;2023-07-29T11:23:34;100679.69;;;34.40;23.50
42169;BME280;27838;43.858;25.974;2023-07-29T11:26:03;100673.97;;;34.43;23.92
42169;BME280;27838;43.858;25.974;2023-07-29T11:28:30;100670.50;;;34.51;23.53
42169;BME280;27838;43.858;25.974;2023-07-29T11:30:57;100669.69;;;34.59;23.58
42169;BME280;27838;43.858;25.974;2023-07-29T11:33:25;100662.72;;;34.56;23.17
42169;BME280;27838;43.858;25.974;2023-07-29T11:35:53;100651.75;;;34.58;23.81
42169;BME280;27838;43.858;25.974;2023-07-29T11:38:21;100664.91;;;34.71;23.12
42169;BME280;27838;43.858;25.974;2023-07-29T11:40:55;100650.34;;;34.72;22.83
42169;BME280;27838;43.858;25.974;2023-07-29T11:43:22;100649.41;;;34.63;22.78
42169;BME280;27838;43.858;25.974;2023-07-29T11:45:48;100653.09;;;34.54;23.22
42169;BME280;27838;43.858;25.974;2023-07-29T11:48:15;100648.28;;;34.48;23.69
42169;BME280;27838;43.858;25.974;2023-07-29T11:50:42;100641.19;;;34.47;23.75
42169;BME280;27838;43.858;25.974;2023-07-29T11:53:09;100631.06;;;34.49;23.25
42169;BME280;27838;43.858;25.974;2023-07-29T11:55:37;100643.09;;;34.54;23.65
42169;BME280;27838;43.858;25.974;2023-07-29T11:58:04;100624.31;;;34.53;23.52
42169;BME280;27838;43.858;25.974;2023-07-29T12:00:31;100632.81;;;34.58;23.27
42169;BME280;27838;43.858;25.974;2023-07-29T12:02:57;100624.31;;;34.53;22.88
42169;BME280;27838;43.858;25.974;2023-07-29T12:05:25;100627.56;;;34.56;23.05
42169;BME280;27838;43.858;25.974;2023-07-29T12:07:51;100628.09;;;34.60;22.90
42169;BME280;27838;43.858;25.974;2023-07-29T12:10:18;100630.47;;;34.63;23.16
42169;BME280;27838;43.858;25.974;2023-07-29T12:12:47;100628.84;;;34.70;23.64
42169;BME280;27838;43.858;25.974;2023-07-29T12:15:23;100630.41;;;34.73;23.22
42169;BME280;27838;43.858;25.974;2023-07-29T12:17:53;100626.31;;;34.69;23.13
42169;BME280;27838;43.858;25.974;2023-07-29T12:20:21;100619.66;;;34.63;23.20
42169;BME280;27838;43.858;25.974;2023-07-29T12:22:59;100623.03;;;34.65;23.14
42169;BME280;27838;43.858;25.974;2023-07-29T12:25:27;100617.28;;;34.60;23.50
42169;BME280;27838;43.858;25.974;2023-07-29T12:27:53;100615.63;;;34.67;23.03
42169;BME280;27838;43.858;25.974;2023-07-29T12:30:21;100620.03;;;34.68;23.12
42169;BME280;27838;43.858;25.974;2023-07-29T12:32:48;100612.56;;;34.62;22.92
42169;BME280;27838;43.858;25.974;2023-07-29T12:35:14;100618.91;;;34.53;22.88
42169;BME280;27838;43.858;25.974;2023-07-29T12:37:41;100616.16;;;34.45;23.00
42169;BME280;27838;43.858;25.974;2023-07-29T12:40:20;100613.63;;;34.43;23.30
42169;BME280;27838;43.858;25.974;2023-07-29T12:42:48;100616.47;;;34.41;22.62
42169;BME280;27838;43.858;25.974;2023-07-29T12:45:15;100612.78;;;34.42;22.74
42169;BME280;27838;43.858;25.974;2023-07-29T12:47:42;100612.56;;;34.36;22.63
42169;BME280;27838;43.858;25.974;2023-07-29T12:50:09;100610.63;;;34.28;22.09